sensor_id;sensor_type;location;lat;lon;timestamp;P1;durP1;ratioP1;P2;durP2;ratioP2
16159;SDS011;8185;57.818;15.224;2022-09-12T00:01:15;21.03;;;3.10;;
16159;SDS011;8185;57.818;15.224;2022-09-12T00:03:44;22.67;;;3.30;;
16159;SDS011;8185;57.818;15.224;2022-09-12T00:06:15;15.00;;;3.70;;
16159;SDS011;8185;57.818;15.224;2022-09-12T00:08:44;46.20;;;3.53;;
16159;SDS011;8185;57.818;15.224;2022-09-12T00:11:12;29.07;;;3.73;;
16159;SDS011;8185;57.818;15.224;2022-09-12T00:13:40;36.33;;;3.13;;
16159;SDS011;8185;57.818;15.224;2022-09-12T00:16:14;43.50;;;5.13;;
16159;SDS011;8185;57.818;15.224;2022-09-12T00:18:43;32.47;;;4.20;;
16159;SDS011;8185;57.818;15.224;2022-09-12T00:21:11;46.53;;;3.67;;
16159;SDS011;8185;57.818;15.224;2022-09-12T00:23:41;58.97;;;4.30;;
16159;SDS011;8185;57.818;15.224;2022-09-12T00:26:08;24.37;;;5.60;;
16159;SDS011;8185;57.818;15.224;2022-09-12T00:28:36;54.53;;;4.60;;
16159;SDS011;8185;57.818;15.224;2022-09-12T00:31:06;94.27;;;6.30;;
16159;SDS011;8185;57.818;15.224;2022-09-12T00:33:34;23.50;;;4.87;;
16159;SDS011;8185;57.818;15.224;2022-09-12T00:36:03;65.77;;;4.30;;
16159;SDS011;8185;57.818;15.224;2022-09-12T00:38:32;91.47;;;5.70;;
16159;SDS011;8185;57.818;15.224;2022-09-12T00:41:04;94.20;;;4.77;;
16159;SDS011;8185;57.818;15.224;2022-09-12T00:43:33;68.13;;;4.93;;
16159;SDS011;8185;57.818;15.224;2022-09-12T00:46:04;52.00;;;4.67;;
16159;SDS011;8185;57.818;15.224;2022-09-12T00:48:43;82.83;;;5.50;;
16159;SDS011;8185;57.818;15.224;2022-09-12T00:51:14;36.67;;;4.30;;
16159;SDS011;8185;57.818;15.224;2022-09-12T00:53:42;34.50;;;3.53;;
16159;SDS011;8185;57.818;15.224;2022-09-12T00:56:13;36.07;;;3.40;;
16159;SDS011;8185;57.818;15.224;2022-09-12T00:58:45;46.80;;;4.10;;
16159;SDS011;8185;57.818;15.224;2022-09-12T01:01:16;38.33;;;3.83;;
16159;SDS011;8185;57.818;15.224;2022-09-12T01:03:44;25.33;;;4.00;;
16159;SDS011;8185;57.818;15.224;2022-09-12T01:06:13;45.07;;;3.37;;
16159;SDS011;8185;57.818;15.224;2022-09-12T01:08:43;48.20;;;3.30;;
16159;SDS011;8185;57.818;15.224;2022-09-12T01:11:15;19.33;;;2.63;;
16159;SDS011;8185;57.818;15.224;2022-09-12T01:13:45;21.37;;;2.53;;
16159;SDS011;8185;57.818;15.224;2022-09-12T01:16:13;23.80;;;2.87;;
16159;SDS011;8185;57.818;15.224;2022-09-12T01:18:43;6.37;;;1.50;;
16159;SDS011;8185;57.818;15.224;2022-09-12T01:21:23;29.47;;;3.50;;
16159;SDS011;8185;57.818;15.224;2022-09-12T01:27:28;50.70;;;3.30;;
16159;SDS011;8185;57.818;15.224;2022-09-12T01:33:15;59.87;;;3.40;;
16159;SDS011;8185;57.818;15.224;2022-09-12T01:35:58;137.00;;;5.93;;
16159;SDS011;8185;57.818;15.224;2022-09-12T01:38:41;31.57;;;3.03;;
16159;SDS011;8185;57.818;15.224;2022-09-12T01:41:14;16.80;;;2.90;;
16159;SDS011;8185;57.818;15.224;2022-09-12T01:43:50;61.30;;;3.77;;
16159;SDS011;8185;57.818;15.224;2022-09-12T01:46:28;65.27;;;5.90;;
16159;SDS011;8185;57.818;15.224;2022-09-12T01:49:05;129.00;;;7.37;;
16159;SDS011;8185;57.818;15.224;2022-09-12T01:51:38;62.63;;;4.43;;
16159;SDS011;8185;57.818;15.224;2022-09-12T01:54:10;93.90;;;5.30;;
16159;SDS011;8185;57.818;15.224;2022-09-12T01:56:45;79.13;;;3.60;;
16159;SDS011;8185;57.818;15.224;2022-09-12T01:59:17;93.53;;;4.90;;
16159;SDS011;8185;57.818;15.224;2022-09-12T02:01:51;28.63;;;3.30;;
16159;SDS011;8185;57.818;15.224;2022-09-12T02:04:24;81.00;;;4.13;;
16159;SDS011;8185;57.818;15.224;2022-09-12T02:06:56;37.67;;;3.17;;
16159;SDS011;8185;57.818;15.224;2022-09-12T02:09:26;120.60;;;6.63;;
16159;SDS011;8185;57.818;15.224;2022-09-12T02:11:58;106.17;;;5.43;;
16159;SDS011;8185;57.818;15.224;2022-09-12T02:14:27;120.50;;;7.10;;
16159;SDS011;8185;57.818;15.224;2022-09-12T02:16:58;91.50;;;5.00;;
16159;SDS011;8185;57.818;15.224;2022-09-12T02:19:33;78.10;;;4.00;;
16159;SDS011;8185;57.818;15.224;2022-09-12T02:22:03;30.83;;;4.43;;
16159;SDS011;8185;57.818;15.224;2022-09-12T02:24:32;21.23;;;2.50;;
16159;SDS011;8185;57.818;15.224;2022-09-12T02:27:05;54.87;;;3.80;;
16159;SDS011;8185;57.818;15.224;2022-09-12T02:29:36;18.63;;;2.60;;
16159;SDS011;8185;57.818;15.224;2022-09-12T02:32:06;24.47;;;3.97;;
16159;SDS011;8185;57.818;15.224;2022-09-12T02:34:40;63.67;;;3.57;;
16159;SDS011;8185;57.818;15.224;2022-09-12T02:37:15;33.70;;;4.70;;
16159;SDS011;8185;57.818;15.224;2022-09-12T02:39:50;37.40;;;4.87;;
16159;SDS011;8185;57.818;15.224;2022-09-12T02:42:19;31.23;;;5.13;;
16159;SDS011;8185;57.818;15.224;2022-09-12T02:44:47;66.40;;;5.27;;
16159;SDS011;8185;57.818;15.224;2022-09-12T02:47:18;33.53;;;4.20;;
16159;SDS011;8185;57.818;15.224;2022-09-12T02:49:52;31.27;;;4.03;;
16159;SDS011;8185;57.818;15.224;2022-09-12T02:52:20;82.17;;;5.07;;
16159;SDS011;8185;57.818;15.224;2022-09-12T02:54:48;34.93;;;4.10;;
16159;SDS011;8185;57.818;15.224;2022-09-12T02:57:17;58.87;;;5.77;;
16159;SDS011;8185;57.818;15.224;2022-09-12T02:59:46;58.70;;;4.47;;
16159;SDS011;8185;57.818;15.224;2022-09-12T03:02:19;84.47;;;5.60;;
16159;SDS011;8185;57.818;15.224;2022-09-12T03:04:56;75.40;;;7.27;;
16159;SDS011;8185;57.818;15.224;2022-09-12T03:10:50;56.13;;;5.47;;
16159;SDS011;8185;57.818;15.224;2022-09-12T03:13:31;46.30;;;5.33;;
16159;SDS011;8185;57.818;15.224;2022-09-12T03:16:11;23.87;;;3.53;;
16159;SDS011;8185;57.818;15.224;2022-09-12T03:18:54;23.10;;;4.00;;
16159;SDS011;8185;57.818;15.224;2022-09-12T03:21:27;27.67;;;3.70;;
16159;SDS011;8185;57.818;15.224;2022-09-12T03:24:03;52.07;;;6.57;;
16159;SDS011;8185;57.818;15.224;2022-09-12T03:26:38;54.50;;;6.20;;
16159;SDS011;8185;57.818;15.224;2022-09-12T03:29:08;20.10;;;3.80;;
16159;SDS011;8185;57.818;15.224;2022-09-12T03:31:37;21.10;;;3.50;;
16159;SDS011;8185;57.818;15.224;2022-09-12T03:34:18;29.27;;;3.77;;
16159;SDS011;8185;57.818;15.224;2022-09-12T03:36:47;43.20;;;4.17;;
16159;SDS011;8185;57.818;15.224;2022-09-12T03:39:14;42.60;;;4.47;;
16159;SDS011;8185;57.818;15.224;2022-09-12T03:41:42;56.43;;;4.03;;
16159;SDS011;8185;57.818;15.224;2022-09-12T03:44:09;81.57;;;5.50;;
16159;SDS011;8185;57.818;15.224;2022-09-12T03:46:37;39.97;;;4.57;;
16159;SDS011;8185;57.818;15.224;2022-09-12T03:49:04;30.63;;;5.47;;
16159;SDS011;8185;57.818;15.224;2022-09-12T03:51:32;59.57;;;6.67;;
16159;SDS011;8185;57.818;15.224;2022-09-12T03:54:00;32.43;;;5.10;;
16159;SDS011;8185;57.818;15.224;2022-09-12T03:56:27;37.53;;;4.07;;
16159;SDS011;8185;57.818;15.224;2022-09-12T03:58:54;35.17;;;3.77;;
16159;SDS011;8185;57.818;15.224;2022-09-12T04:01:21;25.07;;;4.90;;
16159;SDS011;8185;57.818;15.224;2022-09-12T04:03:50;26.70;;;4.20;;
16159;SDS011;8185;57.818;15.224;2022-09-12T04:06:19;28.83;;;4.43;;
16159;SDS011;8185;57.818;15.224;2022-09-12T04:08:49;64.20;;;5.70;;
16159;SDS011;8185;57.818;15.224;2022-09-12T04:11:20;74.93;;;7.80;;
16159;SDS011;8185;57.818;15.224;2022-09-12T04:13:48;33.03;;;5.63;;
16159;SDS011;8185;57.818;15.224;2022-09-12T04:16:16;107.30;;;10.63;;
16159;SDS011;8185;57.818;15.224;2022-09-12T04:18:43;109.70;;;9.37;;
16159;SDS011;8185;57.818;15.224;2022-09-12T04:21:11;35.80;;;6.13;;
16159;SDS011;8185;57.818;15.224;2022-09-12T04:23:41;38.27;;;5.47;;
16159;SDS011;8185;57.818;15.224;2022-09-12T04:26:10;25.73;;;3.77;;
16159;SDS011;8185;57.818;15.224;2022-09-12T04:28:39;27.87;;;4.57;;
16159;SDS011;8185;57.818;15.224;2022-09-12T04:31:07;20.43;;;4.40;;
16159;SDS011;8185;57.818;15.224;2022-09-12T04:33:38;8.40;;;3.53;;
16159;SDS011;8185;57.818;15.224;2022-09-12T04:36:06;8.40;;;2.80;;
16159;SDS011;8185;57.818;15.224;2022-09-12T04:38:35;71.87;;;6.93;;
16159;SDS011;8185;57.818;15.224;2022-09-12T04:41:10;69.87;;;5.23;;
16159;SDS011;8185;57.818;15.224;2022-09-12T04:43:38;136.07;;;6.57;;
16159;SDS011;8185;57.818;15.224;2022-09-12T04:46:06;42.17;;;4.43;;
16159;SDS011;8185;57.818;15.224;2022-09-12T04:48:34;23.50;;;3.50;;
16159;SDS011;8185;57.818;15.224;2022-09-12T04:51:05;32.80;;;3.90;;
16159;SDS011;8185;57.818;15.224;2022-09-12T04:53:33;29.63;;;3.83;;
16159;SDS011;8185;57.818;15.224;2022-09-12T04:56:01;30.70;;;3.73;;
16159;SDS011;8185;57.818;15.224;2022-09-12T04:58:31;43.17;;;3.43;;
16159;SDS011;8185;57.818;15.224;2022-09-12T05:01:03;77.67;;;4.13;;
16159;SDS011;8185;57.818;15.224;2022-09-12T05:03:31;20.60;;;3.30;;
16159;SDS011;8185;57.818;15.224;2022-09-12T05:06:00;51.40;;;4.33;;
16159;SDS011;8185;57.818;15.224;2022-09-12T05:08:28;306.70;;;11.93;;
16159;SDS011;8185;57.818;15.224;2022-09-12T05:10:56;263.60;;;9.73;;
16159;SDS011;8185;57.818;15.224;2022-09-12T05:13:31;24.93;;;4.30;;
16159;SDS011;8185;57.818;15.224;2022-09-12T05:15:59;83.13;;;6.83;;
16159;SDS011;8185;57.818;15.224;2022-09-12T05:18:27;50.47;;;5.33;;
16159;SDS011;8185;57.818;15.224;2022-09-12T05:20:57;64.73;;;5.10;;
16159;SDS011;8185;57.818;15.224;2022-09-12T05:23:26;61.17;;;6.87;;
16159;SDS011;8185;57.818;15.224;2022-09-12T05:25:54;43.97;;;5.10;;
16159;SDS011;8185;57.818;15.224;2022-09-12T05:28:23;55.50;;;4.93;;
16159;SDS011;8185;57.818;15.224;2022-09-12T05:31:00;25.63;;;4.50;;
16159;SDS011;8185;57.818;15.224;2022-09-12T05:33:28;21.37;;;3.40;;
16159;SDS011;8185;57.818;15.224;2022-09-12T05:35:56;23.23;;;3.23;;
16159;SDS011;8185;57.818;15.224;2022-09-12T05:38:24;43.73;;;3.77;;
16159;SDS011;8185;57.818;15.224;2022-09-12T05:40:53;121.77;;;7.40;;
16159;SDS011;8185;57.818;15.224;2022-09-12T05:43:27;104.90;;;4.70;;
16159;SDS011;8185;57.818;15.224;2022-09-12T05:46:00;140.10;;;6.00;;
16159;SDS011;8185;57.818;15.224;2022-09-12T05:48:27;107.13;;;5.47;;
16159;SDS011;8185;57.818;15.224;2022-09-12T05:50:58;116.97;;;4.23;;
16159;SDS011;8185;57.818;15.224;2022-09-12T05:53:27;104.43;;;4.50;;
16159;SDS011;8185;57.818;15.224;2022-09-12T05:56:01;121.87;;;5.70;;
16159;SDS011;8185;57.818;15.224;2022-09-12T05:58:30;129.33;;;4.27;;
16159;SDS011;8185;57.818;15.224;2022-09-12T06:01:01;68.73;;;3.60;;
16159;SDS011;8185;57.818;15.224;2022-09-12T06:03:31;46.40;;;3.33;;
16159;SDS011;8185;57.818;15.224;2022-09-12T06:06:00;31.33;;;2.67;;
16159;SDS011;8185;57.818;15.224;2022-09-12T06:08:29;21.40;;;2.60;;
16159;SDS011;8185;57.818;15.224;2022-09-12T06:10:58;23.63;;;3.23;;
16159;SDS011;8185;57.818;15.224;2022-09-12T06:13:26;56.07;;;4.40;;
16159;SDS011;8185;57.818;15.224;2022-09-12T06:15:53;42.80;;;3.63;;
16159;SDS011;8185;57.818;15.224;2022-09-12T06:18:22;28.60;;;3.03;;
16159;SDS011;8185;57.818;15.224;2022-09-12T06:20:49;10.10;;;2.53;;
16159;SDS011;8185;57.818;15.224;2022-09-12T06:23:16;5.23;;;3.40;;
16159;SDS011;8185;57.818;15.224;2022-09-12T06:25:46;2.33;;;2.13;;
16159;SDS011;8185;57.818;15.224;2022-09-12T06:28:14;3.63;;;2.20;;
16159;SDS011;8185;57.818;15.224;2022-09-12T06:30:41;3.93;;;2.40;;
16159;SDS011;8185;57.818;15.224;2022-09-12T06:33:08;3.23;;;2.17;;
16159;SDS011;8185;57.818;15.224;2022-09-12T06:35:37;3.87;;;2.37;;
16159;SDS011;8185;57.818;15.224;2022-09-12T06:38:06;4.73;;;2.30;;
16159;SDS011;8185;57.818;15.224;2022-09-12T06:40:33;2.97;;;2.53;;
16159;SDS011;8185;57.818;15.224;2022-09-12T06:43:08;5.03;;;2.40;;
16159;SDS011;8185;57.818;15.224;2022-09-12T06:45:36;5.83;;;3.20;;
16159;SDS011;8185;57.818;15.224;2022-09-12T06:48:03;3.57;;;2.63;;
16159;SDS011;8185;57.818;15.224;2022-09-12T06:50:30;4.97;;;2.47;;
16159;SDS011;8185;57.818;15.224;2022-09-12T06:52:59;3.50;;;2.47;;
16159;SDS011;8185;57.818;15.224;2022-09-12T06:55:26;5.43;;;2.87;;
16159;SDS011;8185;57.818;15.224;2022-09-12T06:57:54;6.30;;;2.77;;
16159;SDS011;8185;57.818;15.224;2022-09-12T07:00:21;2.53;;;2.27;;
16159;SDS011;8185;57.818;15.224;2022-09-12T07:02:52;3.47;;;2.90;;
16159;SDS011;8185;57.818;15.224;2022-09-12T07:05:20;6.20;;;3.37;;
16159;SDS011;8185;57.818;15.224;2022-09-12T07:07:48;5.10;;;2.70;;
16159;SDS011;8185;57.818;15.224;2022-09-12T07:10:16;3.03;;;2.60;;
16159;SDS011;8185;57.818;15.224;2022-09-12T07:12:43;3.33;;;2.70;;
16159;SDS011;8185;57.818;15.224;2022-09-12T07:15:11;5.70;;;4.30;;
16159;SDS011;8185;57.818;15.224;2022-09-12T07:17:40;3.13;;;2.67;;
16159;SDS011;8185;57.818;15.224;2022-09-12T07:20:07;5.40;;;2.80;;
16159;SDS011;8185;57.818;15.224;2022-09-12T07:22:35;3.07;;;2.33;;
16159;SDS011;8185;57.818;15.224;2022-09-12T07:25:03;2.53;;;2.30;;
16159;SDS011;8185;57.818;15.224;2022-09-12T07:27:32;3.23;;;1.77;;
16159;SDS011;8185;57.818;15.224;2022-09-12T07:29:59;4.30;;;2.40;;
16159;SDS011;8185;57.818;15.224;2022-09-12T07:32:26;6.00;;;2.27;;
16159;SDS011;8185;57.818;15.224;2022-09-12T07:34:54;4.30;;;2.20;;
16159;SDS011;8185;57.818;15.224;2022-09-12T07:37:21;3.37;;;2.10;;
16159;SDS011;8185;57.818;15.224;2022-09-12T07:39:48;5.40;;;1.93;;
16159;SDS011;8185;57.818;15.224;2022-09-12T07:42:15;2.53;;;2.20;;
16159;SDS011;8185;57.818;15.224;2022-09-12T07:44:44;2.40;;;2.20;;
16159;SDS011;8185;57.818;15.224;2022-09-12T07:47:11;2.70;;;2.20;;
16159;SDS011;8185;57.818;15.224;2022-09-12T07:49:38;3.57;;;2.00;;
16159;SDS011;8185;57.818;15.224;2022-09-12T07:52:06;3.87;;;2.20;;
16159;SDS011;8185;57.818;15.224;2022-09-12T07:54:33;2.73;;;1.93;;
16159;SDS011;8185;57.818;15.224;2022-09-12T07:57:00;2.60;;;1.97;;
16159;SDS011;8185;57.818;15.224;2022-09-12T07:59:28;2.23;;;2.03;;
16159;SDS011;8185;57.818;15.224;2022-09-12T08:01:56;3.20;;;2.00;;
16159;SDS011;8185;57.818;15.224;2022-09-12T08:04:24;2.27;;;2.07;;
16159;SDS011;8185;57.818;15.224;2022-09-12T08:06:51;2.93;;;2.30;;
16159;SDS011;8185;57.818;15.224;2022-09-12T08:09:18;3.73;;;2.33;;
16159;SDS011;8185;57.818;15.224;2022-09-12T08:11:45;2.70;;;2.50;;
16159;SDS011;8185;57.818;15.224;2022-09-12T08:14:13;2.73;;;2.40;;
16159;SDS011;8185;57.818;15.224;2022-09-12T08:16:41;3.97;;;1.97;;
16159;SDS011;8185;57.818;15.224;2022-09-12T08:19:10;3.67;;;2.20;;
16159;SDS011;8185;57.818;15.224;2022-09-12T08:21:38;5.10;;;2.10;;
16159;SDS011;8185;57.818;15.224;2022-09-12T08:24:05;3.07;;;2.47;;
16159;SDS011;8185;57.818;15.224;2022-09-12T08:26:33;3.30;;;2.17;;
16159;SDS011;8185;57.818;15.224;2022-09-12T08:29:01;2.90;;;2.07;;
16159;SDS011;8185;57.818;15.224;2022-09-12T08:31:28;4.10;;;2.20;;
16159;SDS011;8185;57.818;15.224;2022-09-12T08:34:00;5.60;;;2.53;;
16159;SDS011;8185;57.818;15.224;2022-09-12T08:36:30;2.43;;;2.00;;
16159;SDS011;8185;57.818;15.224;2022-09-12T08:38:58;3.93;;;2.37;;
16159;SDS011;8185;57.818;15.224;2022-09-12T08:41:28;4.83;;;2.50;;
16159;SDS011;8185;57.818;15.224;2022-09-12T08:44:06;4.07;;;2.60;;
16159;SDS011;8185;57.818;15.224;2022-09-12T08:46:52;5.13;;;2.17;;
16159;SDS011;8185;57.818;15.224;2022-09-12T08:49:28;2.30;;;2.00;;
16159;SDS011;8185;57.818;15.224;2022-09-12T08:52:01;3.97;;;2.07;;
16159;SDS011;8185;57.818;15.224;2022-09-12T08:54:32;3.53;;;2.07;;
16159;SDS011;8185;57.818;15.224;2022-09-12T08:57:00;4.20;;;2.40;;
16159;SDS011;8185;57.818;15.224;2022-09-12T08:59:29;3.80;;;2.10;;
16159;SDS011;8185;57.818;15.224;2022-09-12T09:02:03;2.33;;;1.80;;
16159;SDS011;8185;57.818;15.224;2022-09-12T09:04:47;1.97;;;1.63;;
16159;SDS011;8185;57.818;15.224;2022-09-12T09:07:24;2.63;;;1.70;;
16159;SDS011;8185;57.818;15.224;2022-09-12T09:10:06;4.20;;;1.90;;
16159;SDS011;8185;57.818;15.224;2022-09-12T09:12:47;4.07;;;2.00;;
16159;SDS011;8185;57.818;15.224;2022-09-12T09:15:24;2.43;;;1.70;;
16159;SDS011;8185;57.818;15.224;2022-09-12T09:18:00;1.70;;;1.60;;
16159;SDS011;8185;57.818;15.224;2022-09-12T09:20:37;4.30;;;2.00;;
16159;SDS011;8185;57.818;15.224;2022-09-12T09:23:12;3.33;;;1.90;;
16159;SDS011;8185;57.818;15.224;2022-09-12T09:25:48;2.93;;;2.40;;
16159;SDS011;8185;57.818;15.224;2022-09-12T09:28:19;2.23;;;1.83;;
16159;SDS011;8185;57.818;15.224;2022-09-12T09:30:51;2.83;;;1.50;;
16159;SDS011;8185;57.818;15.224;2022-09-12T09:33:20;4.43;;;2.00;;
16159;SDS011;8185;57.818;15.224;2022-09-12T09:35:52;1.90;;;1.70;;
16159;SDS011;8185;57.818;15.224;2022-09-12T09:38:28;3.17;;;1.80;;
16159;SDS011;8185;57.818;15.224;2022-09-12T09:41:14;2.87;;;1.70;;
16159;SDS011;8185;57.818;15.224;2022-09-12T09:44:00;2.27;;;1.67;;
16159;SDS011;8185;57.818;15.224;2022-09-12T09:46:28;4.33;;;1.77;;
16159;SDS011;8185;57.818;15.224;2022-09-12T09:48:55;3.10;;;2.30;;
16159;SDS011;8185;57.818;15.224;2022-09-12T09:51:25;2.27;;;1.40;;
16159;SDS011;8185;57.818;15.224;2022-09-12T09:54:00;2.40;;;1.60;;
16159;SDS011;8185;57.818;15.224;2022-09-12T09:56:32;3.57;;;1.70;;
16159;SDS011;8185;57.818;15.224;2022-09-12T09:59:09;9.47;;;2.40;;
16159;SDS011;8185;57.818;15.224;2022-09-12T10:01:42;2.72;;;1.65;;
16159;SDS011;8185;57.818;15.224;2022-09-12T10:04:18;1.98;;;1.30;;
16159;SDS011;8185;57.818;15.224;2022-09-12T10:06:46;2.42;;;1.30;;
16159;SDS011;8185;57.818;15.224;2022-09-12T10:09:18;1.55;;;1.40;;
16159;SDS011;8185;57.818;15.224;2022-09-12T10:11:48;2.95;;;1.50;;
16159;SDS011;8185;57.818;15.224;2022-09-12T10:14:26;2.10;;;1.50;;
16159;SDS011;8185;57.818;15.224;2022-09-12T10:17:02;2.45;;;1.58;;
16159;SDS011;8185;57.818;15.224;2022-09-12T10:19:50;1.40;;;1.30;;
16159;SDS011;8185;57.818;15.224;2022-09-12T10:22:18;2.88;;;1.25;;
16159;SDS011;8185;57.818;15.224;2022-09-12T10:24:49;2.33;;;1.23;;
16159;SDS011;8185;57.818;15.224;2022-09-12T10:27:19;1.40;;;1.23;;
16159;SDS011;8185;57.818;15.224;2022-09-12T10:29:49;2.08;;;1.45;;
16159;SDS011;8185;57.818;15.224;2022-09-12T10:32:21;2.72;;;1.33;;
16159;SDS011;8185;57.818;15.224;2022-09-12T10:34:55;2.55;;;1.30;;
16159;SDS011;8185;57.818;15.224;2022-09-12T10:37:28;2.13;;;1.50;;
16159;SDS011;8185;57.818;15.224;2022-09-12T10:39:59;1.85;;;1.48;;
16159;SDS011;8185;57.818;15.224;2022-09-12T10:42:44;2.00;;;1.40;;
16159;SDS011;8185;57.818;15.224;2022-09-12T10:45:20;1.63;;;1.40;;
16159;SDS011;8185;57.818;15.224;2022-09-12T10:47:49;2.33;;;1.33;;
16159;SDS011;8185;57.818;15.224;2022-09-12T10:50:25;1.52;;;1.13;;
16159;SDS011;8185;57.818;15.224;2022-09-12T10:52:57;2.33;;;1.50;;
16159;SDS011;8185;57.818;15.224;2022-09-12T10:55:47;3.88;;;1.23;;
16159;SDS011;8185;57.818;15.224;2022-09-12T10:58:29;2.13;;;1.40;;
16159;SDS011;8185;57.818;15.224;2022-09-12T11:01:18;2.00;;;1.30;;
16159;SDS011;8185;57.818;15.224;2022-09-12T11:04:10;1.38;;;1.20;;
16159;SDS011;8185;57.818;15.224;2022-09-12T11:06:52;2.53;;;1.35;;
16159;SDS011;8185;57.818;15.224;2022-09-12T11:09:48;2.45;;;1.60;;
16159;SDS011;8185;57.818;15.224;2022-09-12T11:12:23;3.67;;;1.35;;
16159;SDS011;8185;57.818;15.224;2022-09-12T11:15:02;1.50;;;1.30;;
16159;SDS011;8185;57.818;15.224;2022-09-12T11:17:43;2.13;;;1.60;;
16159;SDS011;8185;57.818;15.224;2022-09-12T11:20:25;2.95;;;1.33;;
16159;SDS011;8185;57.818;15.224;2022-09-12T11:23:20;1.38;;;1.27;;
16159;SDS011;8185;57.818;15.224;2022-09-12T11:26:08;2.88;;;1.17;;
16159;SDS011;8185;57.818;15.224;2022-09-12T11:28:51;1.33;;;1.23;;
16159;SDS011;8185;57.818;15.224;2022-09-12T11:31:35;1.83;;;1.15;;
16159;SDS011;8185;57.818;15.224;2022-09-12T11:34:36;1.65;;;1.00;;
16159;SDS011;8185;57.818;15.224;2022-09-12T11:37:18;1.52;;;1.30;;
16159;SDS011;8185;57.818;15.224;2022-09-12T11:39:55;2.50;;;1.00;;
16159;SDS011;8185;57.818;15.224;2022-09-12T11:42:34;1.73;;;1.25;;
16159;SDS011;8185;57.818;15.224;2022-09-12T11:45:12;1.25;;;1.00;;
16159;SDS011;8185;57.818;15.224;2022-09-12T11:47:43;1.55;;;1.10;;
16159;SDS011;8185;57.818;15.224;2022-09-12T11:50:16;1.95;;;1.25;;
16159;SDS011;8185;57.818;15.224;2022-09-12T11:52:47;2.10;;;1.10;;
16159;SDS011;8185;57.818;15.224;2022-09-12T11:55:17;2.30;;;1.10;;
16159;SDS011;8185;57.818;15.224;2022-09-12T11:57:49;2.43;;;1.50;;
16159;SDS011;8185;57.818;15.224;2022-09-12T12:00:22;4.63;;;1.60;;
16159;SDS011;8185;57.818;15.224;2022-09-12T12:02:56;3.40;;;1.17;;
16159;SDS011;8185;57.818;15.224;2022-09-12T12:05:30;2.10;;;1.33;;
16159;SDS011;8185;57.818;15.224;2022-09-12T12:08:03;2.03;;;1.30;;
16159;SDS011;8185;57.818;15.224;2022-09-12T12:10:33;2.90;;;1.17;;
16159;SDS011;8185;57.818;15.224;2022-09-12T12:13:03;1.30;;;1.20;;
16159;SDS011;8185;57.818;15.224;2022-09-12T12:15:35;2.07;;;1.40;;
16159;SDS011;8185;57.818;15.224;2022-09-12T12:18:05;2.90;;;1.20;;
16159;SDS011;8185;57.818;15.224;2022-09-12T12:20:41;1.10;;;0.87;;
16159;SDS011;8185;57.818;15.224;2022-09-12T12:23:20;1.33;;;1.10;;
16159;SDS011;8185;57.818;15.224;2022-09-12T12:25:52;2.40;;;0.83;;
16159;SDS011;8185;57.818;15.224;2022-09-12T12:31:26;2.53;;;0.77;;
16159;SDS011;8185;57.818;15.224;2022-09-12T12:33:54;1.30;;;0.90;;
16159;SDS011;8185;57.818;15.224;2022-09-12T12:36:35;1.50;;;0.83;;
16159;SDS011;8185;57.818;15.224;2022-09-12T12:42:10;1.43;;;0.90;;
16159;SDS011;8185;57.818;15.224;2022-09-12T12:45:47;1.70;;;0.90;;
16159;SDS011;8185;57.818;15.224;2022-09-12T12:48:35;1.33;;;1.00;;
16159;SDS011;8185;57.818;15.224;2022-09-12T12:51:19;1.40;;;1.10;;
16159;SDS011;8185;57.818;15.224;2022-09-12T12:54:01;2.03;;;1.10;;
16159;SDS011;8185;57.818;15.224;2022-09-12T12:56:34;6.40;;;1.47;;
16159;SDS011;8185;57.818;15.224;2022-09-12T12:59:11;1.88;;;1.30;;
16159;SDS011;8185;57.818;15.224;2022-09-12T13:01:45;1.57;;;1.17;;
16159;SDS011;8185;57.818;15.224;2022-09-12T13:04:16;2.08;;;0.98;;
16159;SDS011;8185;57.818;15.224;2022-09-12T13:06:53;1.03;;;1.00;;
16159;SDS011;8185;57.818;15.224;2022-09-12T13:09:24;1.40;;;1.20;;
16159;SDS011;8185;57.818;15.224;2022-09-12T13:11:56;1.40;;;1.13;;
16159;SDS011;8185;57.818;15.224;2022-09-12T13:14:33;2.03;;;1.13;;
16159;SDS011;8185;57.818;15.224;2022-09-12T13:17:15;1.73;;;1.20;;
16159;SDS011;8185;57.818;15.224;2022-09-12T13:19:51;2.10;;;1.40;;
16159;SDS011;8185;57.818;15.224;2022-09-12T13:22:37;2.72;;;1.13;;
16159;SDS011;8185;57.818;15.224;2022-09-12T13:25:17;1.73;;;1.07;;
16159;SDS011;8185;57.818;15.224;2022-09-12T13:27:57;3.67;;;1.43;;
16159;SDS011;8185;57.818;15.224;2022-09-12T13:30:25;3.43;;;1.80;;
16159;SDS011;8185;57.818;15.224;2022-09-12T13:32:55;1.83;;;1.40;;
16159;SDS011;8185;57.818;15.224;2022-09-12T13:35:27;1.63;;;0.97;;
16159;SDS011;8185;57.818;15.224;2022-09-12T13:38:03;1.70;;;1.20;;
16159;SDS011;8185;57.818;15.224;2022-09-12T13:40:40;2.87;;;1.17;;
16159;SDS011;8185;57.818;15.224;2022-09-12T13:43:22;1.60;;;1.07;;
16159;SDS011;8185;57.818;15.224;2022-09-12T13:46:02;1.47;;;1.20;;
16159;SDS011;8185;57.818;15.224;2022-09-12T13:48:29;2.63;;;1.40;;
16159;SDS011;8185;57.818;15.224;2022-09-12T13:50:59;1.60;;;1.40;;
16159;SDS011;8185;57.818;15.224;2022-09-12T13:53:29;1.43;;;1.10;;
16159;SDS011;8185;57.818;15.224;2022-09-12T13:56:01;4.40;;;1.67;;
16159;SDS011;8185;57.818;15.224;2022-09-12T13:58:29;4.27;;;1.40;;
16159;SDS011;8185;57.818;15.224;2022-09-12T14:01:02;2.23;;;1.10;;
16159;SDS011;8185;57.818;15.224;2022-09-12T14:03:33;2.60;;;1.13;;
16159;SDS011;8185;57.818;15.224;2022-09-12T14:06:24;3.27;;;1.20;;
16159;SDS011;8185;57.818;15.224;2022-09-12T14:08:53;4.80;;;1.43;;
16159;SDS011;8185;57.818;15.224;2022-09-12T14:11:25;1.20;;;1.10;;
16159;SDS011;8185;57.818;15.224;2022-09-12T14:13:54;2.30;;;1.40;;
16159;SDS011;8185;57.818;15.224;2022-09-12T14:16:22;2.93;;;1.20;;
16159;SDS011;8185;57.818;15.224;2022-09-12T14:18:52;2.33;;;1.50;;
16159;SDS011;8185;57.818;15.224;2022-09-12T14:21:34;2.47;;;1.60;;
16159;SDS011;8185;57.818;15.224;2022-09-12T14:24:03;1.73;;;1.10;;
16159;SDS011;8185;57.818;15.224;2022-09-12T14:26:33;1.53;;;1.20;;
16159;SDS011;8185;57.818;15.224;2022-09-12T14:29:04;2.07;;;1.40;;
16159;SDS011;8185;57.818;15.224;2022-09-12T14:31:33;2.10;;;1.20;;
16159;SDS011;8185;57.818;15.224;2022-09-12T14:34:10;2.30;;;1.57;;
16159;SDS011;8185;57.818;15.224;2022-09-12T14:36:45;3.93;;;1.67;;
16159;SDS011;8185;57.818;15.224;2022-09-12T14:39:16;3.10;;;1.30;;
16159;SDS011;8185;57.818;15.224;2022-09-12T14:41:49;3.20;;;1.40;;
16159;SDS011;8185;57.818;15.224;2022-09-12T14:44:25;1.93;;;1.20;;
16159;SDS011;8185;57.818;15.224;2022-09-12T14:46:54;2.50;;;1.33;;
16159;SDS011;8185;57.818;15.224;2022-09-12T14:49:24;2.07;;;1.13;;
16159;SDS011;8185;57.818;15.224;2022-09-12T14:51:58;1.52;;;1.20;;
16159;SDS011;8185;57.818;15.224;2022-09-12T14:54:35;1.60;;;1.35;;
16159;SDS011;8185;57.818;15.224;2022-09-12T14:57:05;2.47;;;1.55;;
16159;SDS011;8185;57.818;15.224;2022-09-12T15:00:03;1.60;;;1.13;;
16159;SDS011;8185;57.818;15.224;2022-09-12T15:02:35;1.67;;;1.30;;
16159;SDS011;8185;57.818;15.224;2022-09-12T15:05:17;5.00;;;2.08;;
16159;SDS011;8185;57.818;15.224;2022-09-12T15:07:54;2.43;;;1.37;;
16159;SDS011;8185;57.818;15.224;2022-09-12T15:10:24;1.37;;;1.10;;
16159;SDS011;8185;57.818;15.224;2022-09-12T15:13:17;2.53;;;1.33;;
16159;SDS011;8185;57.818;15.224;2022-09-12T15:15:47;1.70;;;1.20;;
16159;SDS011;8185;57.818;15.224;2022-09-12T15:18:17;3.07;;;1.50;;
16159;SDS011;8185;57.818;15.224;2022-09-12T15:20:45;4.70;;;1.27;;
16159;SDS011;8185;57.818;15.224;2022-09-12T15:23:22;3.30;;;1.23;;
16159;SDS011;8185;57.818;15.224;2022-09-12T15:25:57;2.60;;;1.20;;
16159;SDS011;8185;57.818;15.224;2022-09-12T15:28:24;1.40;;;1.30;;